sensor_id;sensor_type;location;lat;lon;timestamp;pressure;altitude;pressure_sealevel;temperature;humidity
71109;BME280;59614;51.012;-1.648;2023-05-14T00:02:17;101509.97;;;11.30;92.59
71109;BME280;59614;51.012;-1.648;2023-05-14T00:04:42;101507.28;;;11.36;93.18
71109;BME280;59614;51.012;-1.648;2023-05-14T00:07:07;101506.31;;;11.65;91.55
71109;BME280;59614;51.012;-1.648;2023-05-14T00:09:33;101493.22;;;11.30;92.77
71109;BME280;59614;51.012;-1.648;2023-05-14T00:11:59;101501.16;;;11.36;92.54
71109;BME280;59614;51.012;-1.648;2023-05-14T00:14:25;101499.41;;;11.22;93.53
71109;BME280;59614;51.012;-1.648;2023-05-14T00:16:50;101496.72;;;11.38;92.44
71109;BME280;59614;51.012;-1.648;2023-05-14T00:19:16;101504.69;;;11.25;92.98
71109;BME280;59614;51.012;-1.648;2023-05-14T00:21:41;101498.53;;;11.19;93.22
71109;BME280;59614;51.012;-1.648;2023-05-14T00:24:07;101499.41;;;11.18;93.54
71109;BME280;59614;51.012;-1.648;2023-05-14T00:26:32;101498.53;;;11.20;93.33
71109;BME280;59614;51.012;-1.648;2023-05-14T00:28:58;101498.53;;;11.20;93.63
71109;BME280;59614;51.012;-1.648;2023-05-14T00:31:23;101509.13;;;10.86;95.09
71109;BME280;59614;51.012;-1.648;2023-05-14T00:33:48;101487.09;;;11.01;95.54
71109;BME280;59614;51.012;-1.648;2023-05-14T00:36:14;101488.88;;;10.97;96.04
71109;BME280;59614;51.012;-1.648;2023-05-14T00:38:39;101484.44;;;10.93;96.91
71109;BME280;59614;51.012;-1.648;2023-05-14T00:41:05;101484.38;;;11.32;94.46
71109;BME280;59614;51.012;-1.648;2023-05-14T00:43:30;101480.94;;;11.05;95.42
71109;BME280;59614;51.012;-1.648;2023-05-14T00:45:57;101482.69;;;10.83;97.15
71109;BME280;59614;51.012;-1.648;2023-05-14T00:48:23;101476.56;;;10.87;96.39
71109;BME280;59614;51.012;-1.648;2023-05-14T00:50:49;101480.06;;;10.66;98.50
71109;BME280;59614;51.012;-1.648;2023-05-14T00:53:16;101478.31;;;10.63;99.12
71109;BME280;59614;51.012;-1.648;2023-05-14T00:55:42;101472.09;;;11.23;96.30
71109;BME280;59614;51.012;-1.648;2023-05-14T00:58:11;101472.09;;;11.31;94.13
71109;BME280;59614;51.012;-1.648;2023-05-14T01:00:38;101477.31;;;11.48;93.75
71109;BME280;59614;51.012;-1.648;2023-05-14T01:03:04;101473.81;;;11.41;92.98
71109;BME280;59614;51.012;-1.648;2023-05-14T01:05:51;101470.34;;;11.22;95.30
71109;BME280;59614;51.012;-1.648;2023-05-14T01:08:41;101468.53;;;11.31;92.87
71109;BME280;59614;51.012;-1.648;2023-05-14T01:11:30;101459.69;;;11.44;93.69
71109;BME280;59614;51.012;-1.648;2023-05-14T01:14:17;101452.69;;;11.29;92.24
71109;BME280;59614;51.012;-1.648;2023-05-14T01:16:47;101448.28;;;11.26;93.30
71109;BME280;59614;51.012;-1.648;2023-05-14T01:19:22;101445.63;;;11.30;92.78
71109;BME280;59614;51.012;-1.648;2023-05-14T01:21:51;101440.38;;;11.31;92.94
71109;BME280;59614;51.012;-1.648;2023-05-14T01:24:17;101438.56;;;11.38;92.38
71109;BME280;59614;51.012;-1.648;2023-05-14T01:26:42;101438.59;;;11.32;93.38
71109;BME280;59614;51.012;-1.648;2023-05-14T01:29:22;101438.59;;;11.28;93.57
71109;BME280;59614;51.012;-1.648;2023-05-14T01:31:52;101433.28;;;11.38;93.94
71109;BME280;59614;51.012;-1.648;2023-05-14T01:34:21;101441.22;;;11.36;93.79
71109;BME280;59614;51.012;-1.648;2023-05-14T01:36:49;101436.81;;;11.37;92.47
71109;BME280;59614;51.012;-1.648;2023-05-14T01:39:15;101431.56;;;11.29;93.20
71109;BME280;59614;51.012;-1.648;2023-05-14T01:41:41;101434.16;;;11.32;93.41
71109;BME280;59614;51.012;-1.648;2023-05-14T01:44:08;101433.28;;;11.41;93.71
71109;BME280;59614;51.012;-1.648;2023-05-14T01:46:34;101435.09;;;11.22;93.14
71109;BME280;59614;51.012;-1.648;2023-05-14T01:49:00;101431.53;;;11.31;93.91
71109;BME280;59614;51.012;-1.648;2023-05-14T01:51:26;101436.88;;;11.17;95.97
71109;BME280;59614;51.012;-1.648;2023-05-14T01:53:51;101436.81;;;11.31;93.87
71109;BME280;59614;51.012;-1.648;2023-05-14T01:56:18;101432.50;;;11.05;94.72
71109;BME280;59614;51.012;-1.648;2023-05-14T01:58:43;101426.34;;;10.96;95.42
71109;BME280;59614;51.012;-1.648;2023-05-14T02:01:09;101428.09;;;11.04;95.89
71109;BME280;59614;51.012;-1.648;2023-05-14T02:03:34;101424.56;;;11.11;95.28
71109;BME280;59614;51.012;-1.648;2023-05-14T02:06:00;101415.81;;;10.84;95.42
71109;BME280;59614;51.012;-1.648;2023-05-14T02:08:25;101412.28;;;10.82;96.29
71109;BME280;59614;51.012;-1.648;2023-05-14T02:10:51;101409.69;;;10.59;97.72
71109;BME280;59614;51.012;-1.648;2023-05-14T02:13:16;101403.50;;;10.71;97.71
71109;BME280;59614;51.012;-1.648;2023-05-14T02:15:42;101405.28;;;10.69;97.88
71109;BME280;59614;51.012;-1.648;2023-05-14T02:18:07;101407.91;;;10.61;97.88
71109;BME280;59614;51.012;-1.648;2023-05-14T02:20:33;101398.16;;;10.92;96.65
71109;BME280;59614;51.012;-1.648;2023-05-14T02:22:58;101396.34;;;11.22;95.42
71109;BME280;59614;51.012;-1.648;2023-05-14T02:25:23;101406.06;;;11.08;95.27
71109;BME280;59614;51.012;-1.648;2023-05-14T02:27:49;101404.25;;;11.24;95.14
71109;BME280;59614;51.012;-1.648;2023-05-14T02:30:15;101402.50;;;11.21;94.29
71109;BME280;59614;51.012;-1.648;2023-05-14T02:32:40;101400.78;;;11.08;94.14
71109;BME280;59614;51.012;-1.648;2023-05-14T02:35:06;101397.22;;;11.15;94.56
71109;BME280;59614;51.012;-1.648;2023-05-14T02:37:32;101402.50;;;11.26;93.87
71109;BME280;59614;51.012;-1.648;2023-05-14T02:39:58;101401.63;;;11.16;94.19
71109;BME280;59614;51.012;-1.648;2023-05-14T02:42:24;101394.63;;;11.01;94.66
71109;BME280;59614;51.012;-1.648;2023-05-14T02:44:49;101392.94;;;10.71;96.02
71109;BME280;59614;51.012;-1.648;2023-05-14T02:47:16;101393.81;;;10.80;96.97
71109;BME280;59614;51.012;-1.648;2023-05-14T02:49:41;101392.97;;;10.46;98.50
71109;BME280;59614;51.012;-1.648;2023-05-14T02:52:07;101390.34;;;10.41;100.00
71109;BME280;59614;51.012;-1.648;2023-05-14T02:54:33;101401.75;;;10.66;99.24
71109;BME280;59614;51.012;-1.648;2023-05-14T02:56:58;101402.59;;;10.79;97.71
71109;BME280;59614;51.012;-1.648;2023-05-14T02:59:24;101407.88;;;10.87;96.13
71109;BME280;59614;51.012;-1.648;2023-05-14T03:01:49;101400.88;;;10.68;96.51
71109;BME280;59614;51.012;-1.648;2023-05-14T03:04:15;101410.56;;;10.50;98.77
71109;BME280;59614;51.012;-1.648;2023-05-14T03:06:40;101394.69;;;10.79;98.81
71109;BME280;59614;51.012;-1.648;2023-05-14T03:09:06;101397.34;;;10.73;97.78
71109;BME280;59614;51.012;-1.648;2023-05-14T03:11:32;101393.81;;;10.77;98.33
71109;BME280;59614;51.012;-1.648;2023-05-14T03:13:57;101398.16;;;11.00;96.49
71109;BME280;59614;51.012;-1.648;2023-05-14T03:16:22;101399.91;;;10.98;94.26
71109;BME280;59614;51.012;-1.648;2023-05-14T03:18:48;101402.56;;;11.01;95.63
71109;BME280;59614;51.012;-1.648;2023-05-14T03:21:13;101398.13;;;11.08;94.94
71109;BME280;59614;51.012;-1.648;2023-05-14T03:23:39;101401.72;;;10.85;94.72
71109;BME280;59614;51.012;-1.648;2023-05-14T03:26:05;101402.59;;;10.90;95.03
71109;BME280;59614;51.012;-1.648;2023-05-14T03:28:30;101399.91;;;11.06;94.86
71109;BME280;59614;51.012;-1.648;2023-05-14T03:30:56;101400.75;;;11.16;94.63
71109;BME280;59614;51.012;-1.648;2023-05-14T03:33:21;101393.75;;;11.04;92.66
71109;BME280;59614;51.012;-1.648;2023-05-14T03:35:47;101398.22;;;10.64;95.86
71109;BME280;59614;51.012;-1.648;2023-05-14T03:38:13;101396.44;;;10.85;94.53
71109;BME280;59614;51.012;-1.648;2023-05-14T03:40:38;101391.16;;;10.93;94.55
71109;BME280;59614;51.012;-1.648;2023-05-14T03:43:04;101391.13;;;10.94;95.02
71109;BME280;59614;51.012;-1.648;2023-05-14T03:45:29;101394.72;;;10.56;95.88
71109;BME280;59614;51.012;-1.648;2023-05-14T03:47:55;101392.03;;;10.79;95.79
71109;BME280;59614;51.012;-1.648;2023-05-14T03:50:20;101390.31;;;10.57;96.31
71109;BME280;59614;51.012;-1.648;2023-05-14T03:52:46;101397.28;;;10.96;97.03
71109;BME280;59614;51.012;-1.648;2023-05-14T03:55:11;101391.09;;;11.07;96.26
71109;BME280;59614;51.012;-1.648;2023-05-14T03:57:37;101386.69;;;11.10;94.42
71109;BME280;59614;51.012;-1.648;2023-05-14T04:00:03;101385.84;;;11.01;94.73
71109;BME280;59614;51.012;-1.648;2023-05-14T04:02:29;101387.69;;;10.55;96.08
71109;BME280;59614;51.012;-1.648;2023-05-14T04:04:54;101384.16;;;10.65;95.85
71109;BME280;59614;51.012;-1.648;2023-05-14T04:07:20;101384.13;;;10.75;95.92
71109;BME280;59614;51.012;-1.648;2023-05-14T04:09:45;101384.13;;;10.76;96.29
71109;BME280;59614;51.012;-1.648;2023-05-14T04:12:10;101385.03;;;10.54;97.01
71109;BME280;59614;51.012;-1.648;2023-05-14T04:14:36;101382.38;;;10.71;96.00
71109;BME280;59614;51.012;-1.648;2023-05-14T04:17:01;101385.03;;;10.80;95.34
71109;BME280;59614;51.012;-1.648;2023-05-14T04:19:27;101385.00;;;10.78;95.86
71109;BME280;59614;51.012;-1.648;2023-05-14T04:21:53;101391.19;;;10.79;95.60
71109;BME280;59614;51.012;-1.648;2023-05-14T04:24:18;101378.81;;;11.03;95.46
71109;BME280;59614;51.012;-1.648;2023-05-14T04:26:44;101383.19;;;11.02;94.91
71109;BME280;59614;51.012;-1.648;2023-05-14T04:29:09;101373.53;;;11.03;94.36
71109;BME280;59614;51.012;-1.648;2023-05-14T04:31:35;101369.97;;;11.04;93.05
71109;BME280;59614;51.012;-1.648;2023-05-14T04:34:00;101381.38;;;11.13;93.59
71109;BME280;59614;51.012;-1.648;2023-05-14T04:36:25;101371.66;;;11.26;93.48
71109;BME280;59614;51.012;-1.648;2023-05-14T04:38:51;101370.84;;;11.12;92.89
71109;BME280;59614;51.012;-1.648;2023-05-14T04:41:16;101371.78;;;10.83;93.18
71109;BME280;59614;51.012;-1.648;2023-05-14T04:43:42;101366.53;;;10.74;94.03
71109;BME280;59614;51.012;-1.648;2023-05-14T04:46:07;101371.81;;;10.80;94.91
71109;BME280;59614;51.012;-1.648;2023-05-14T04:48:33;101364.69;;;10.99;94.90
71109;BME280;59614;51.012;-1.648;2023-05-14T04:50:59;101360.34;;;10.84;94.10
71109;BME280;59614;51.012;-1.648;2023-05-14T04:53:25;101355.03;;;10.89;94.68
71109;BME280;59614;51.012;-1.648;2023-05-14T04:55:50;101361.22;;;10.83;95.31
71109;BME280;59614;51.012;-1.648;2023-05-14T04:58:16;101355.91;;;11.02;94.39
71109;BME280;59614;51.012;-1.648;2023-05-14T05:00:41;101357.66;;;10.93;94.55
71109;BME280;59614;51.012;-1.648;2023-05-14T05:03:07;101348.81;;;11.04;94.11
71109;BME280;59614;51.012;-1.648;2023-05-14T05:05:32;101354.13;;;11.07;93.32
71109;BME280;59614;51.012;-1.648;2023-05-14T05:07:59;101357.59;;;11.18;93.50
71109;BME280;59614;51.012;-1.648;2023-05-14T05:10:24;101361.16;;;11.08;93.04
71109;BME280;59614;51.012;-1.648;2023-05-14T05:12:50;101363.84;;;11.02;93.98
71109;BME280;59614;51.012;-1.648;2023-05-14T05:15:15;101353.28;;;10.88;94.79
71109;BME280;59614;51.012;-1.648;2023-05-14T05:17:41;101346.19;;;11.05;94.13
71109;BME280;59614;51.012;-1.648;2023-05-14T05:20:07;101351.47;;;11.07;94.33
71109;BME280;59614;51.012;-1.648;2023-05-14T05:22:34;101347.94;;;11.16;92.29
71109;BME280;59614;51.012;-1.648;2023-05-14T05:25:00;101342.56;;;11.26;93.82
71109;BME280;59614;51.012;-1.648;2023-05-14T05:27:26;101343.47;;;11.21;93.91
71109;BME280;59614;51.012;-1.648;2023-05-14T05:29:51;101344.34;;;11.29;94.10
71109;BME280;59614;51.012;-1.648;2023-05-14T05:32:17;101339.97;;;11.23;93.53
71109;BME280;59614;51.012;-1.648;2023-05-14T05:34:42;101339.13;;;11.12;93.51
71109;BME280;59614;51.012;-1.648;2023-05-14T05:37:07;101338.38;;;10.73;92.49
71109;BME280;59614;51.012;-1.648;2023-05-14T05:39:36;101324.28;;;10.71;94.34
71109;BME280;59614;51.012;-1.648;2023-05-14T05:42:03;101344.50;;;10.84;94.41
71109;BME280;59614;51.012;-1.648;2023-05-14T05:44:29;101343.59;;;10.94;95.18
71109;BME280;59614;51.012;-1.648;2023-05-14T05:46:54;101347.06;;;11.09;94.59
71109;BME280;59614;51.012;-1.648;2023-05-14T05:49:23;101338.41;;;10.11;98.02
71109;BME280;59614;51.012;-1.648;2023-05-14T05:51:48;101337.47;;;10.75;98.67
71109;BME280;59614;51.012;-1.648;2023-05-14T05:54:14;101344.38;;;11.24;95.84
71109;BME280;59614;51.012;-1.648;2023-05-14T05:56:39;101335.41;;;11.50;94.31
71109;BME280;59614;51.012;-1.648;2023-05-14T05:59:05;101335.44;;;11.49;92.71
71109;BME280;59614;51.012;-1.648;2023-05-14T06:01:30;101345.16;;;11.39;91.99
71109;BME280;59614;51.012;-1.648;2023-05-14T06:03:56;101343.50;;;11.25;92.03
71109;BME280;59614;51.012;-1.648;2023-05-14T06:06:22;101340.78;;;11.39;92.06
71109;BME280;59614;51.012;-1.648;2023-05-14T06:08:47;101343.56;;;10.99;90.43
71109;BME280;59614;51.012;-1.648;2023-05-14T06:11:13;101336.50;;;11.06;92.01
71109;BME280;59614;51.012;-1.648;2023-05-14T06:13:39;101343.44;;;11.32;90.93
71109;BME280;59614;51.012;-1.648;2023-05-14T06:16:05;101347.03;;;11.15;88.93
71109;BME280;59614;51.012;-1.648;2023-05-14T06:18:30;101348.81;;;11.18;89.40
71109;BME280;59614;51.012;-1.648;2023-05-14T06:20:56;101343.53;;;11.07;90.26
71109;BME280;59614;51.012;-1.648;2023-05-14T06:23:24;101339.16;;;11.01;89.70
71109;BME280;59614;51.012;-1.648;2023-05-14T06:25:50;101342.63;;;11.23;92.11
71109;BME280;59614;51.012;-1.648;2023-05-14T06:28:16;101331.94;;;11.42;91.29
71109;BME280;59614;51.012;-1.648;2023-05-14T06:30:41;101334.63;;;11.36;90.64
71109;BME280;59614;51.012;-1.648;2023-05-14T06:33:07;101327.56;;;11.36;90.51
71109;BME280;59614;51.012;-1.648;2023-05-14T06:35:32;101334.69;;;11.23;88.75
71109;BME280;59614;51.012;-1.648;2023-05-14T06:37:58;101326.00;;;10.87;90.38
71109;BME280;59614;51.012;-1.648;2023-05-14T06:40:24;101333.94;;;10.90;91.16
71109;BME280;59614;51.012;-1.648;2023-05-14T06:42:49;101339.06;;;11.26;91.14
71109;BME280;59614;51.012;-1.648;2023-05-14T06:45:15;101330.41;;;10.87;91.00
71109;BME280;59614;51.012;-1.648;2023-05-14T06:47:40;101336.47;;;11.15;91.75
71109;BME280;59614;51.012;-1.648;2023-05-14T06:50:06;101329.28;;;11.45;90.43
71109;BME280;59614;51.012;-1.648;2023-05-14T06:52:32;101333.63;;;11.52;89.08
71109;BME280;59614;51.012;-1.648;2023-05-14T06:54:57;101326.63;;;11.43;89.76
71109;BME280;59614;51.012;-1.648;2023-05-14T06:57:23;101326.75;;;11.25;88.43
71109;BME280;59614;51.012;-1.648;2023-05-14T06:59:48;101324.09;;;11.28;88.87
71109;BME280;59614;51.012;-1.648;2023-05-14T07:02:14;101332.88;;;11.32;89.94
71109;BME280;59614;51.012;-1.648;2023-05-14T07:04:39;101324.91;;;11.38;89.46
71109;BME280;59614;51.012;-1.648;2023-05-14T07:07:05;101321.25;;;11.61;86.80
71109;BME280;59614;51.012;-1.648;2023-05-14T07:09:30;101324.69;;;11.72;87.80
71109;BME280;59614;51.012;-1.648;2023-05-14T07:11:56;101330.13;;;11.52;86.44
71109;BME280;59614;51.012;-1.648;2023-05-14T07:14:21;101334.56;;;11.45;87.48
71109;BME280;59614;51.012;-1.648;2023-05-14T07:16:46;101333.41;;;11.89;87.65
71109;BME280;59614;51.012;-1.648;2023-05-14T07:19:12;101319.91;;;12.27;86.76
71109;BME280;59614;51.012;-1.648;2023-05-14T07:21:37;101324.91;;;12.58;85.82
71109;BME280;59614;51.012;-1.648;2023-05-14T07:24:03;101322.28;;;12.55;84.91
71109;BME280;59614;51.012;-1.648;2023-05-14T07:26:28;101316.25;;;12.40;84.76
71109;BME280;59614;51.012;-1.648;2023-05-14T07:28:54;101322.56;;;12.27;84.46
71109;BME280;59614;51.012;-1.648;2023-05-14T07:31:19;101313.72;;;12.29;86.02
71109;BME280;59614;51.012;-1.648;2023-05-14T07:33:45;101317.53;;;11.93;85.38
71109;BME280;59614;51.012;-1.648;2023-05-14T07:36:10;101324.38;;;12.22;87.11
71109;BME280;59614;51.012;-1.648;2023-05-14T07:38:36;101326.88;;;12.37;84.96
71109;BME280;59614;51.012;-1.648;2023-05-14T07:41:02;101318.91;;;12.39;86.46
71109;BME280;59614;51.012;-1.648;2023-05-14T07:43:27;101323.69;;;12.87;84.64
71109;BME280;59614;51.012;-1.648;2023-05-14T07:45:53;101314.88;;;12.85;82.37
71109;BME280;59614;51.012;-1.648;2023-05-14T07:48:18;101315.06;;;12.71;81.23
71109;BME280;59614;51.012;-1.648;2023-05-14T07:50:44;101313.38;;;12.62;84.24
71109;BME280;59614;51.012;-1.648;2023-05-14T07:53:09;101322.94;;;12.77;83.93
71109;BME280;59614;51.012;-1.648;2023-05-14T07:55:35;101321.56;;;13.18;82.51
71109;BME280;59614;51.012;-1.648;2023-05-14T07:58:00;101322.56;;;13.06;80.79
71109;BME280;59614;51.012;-1.648;2023-05-14T08:00:26;101321.53;;;13.21;80.48
71109;BME280;59614;51.012;-1.648;2023-05-14T08:02:51;101310.00;;;13.24;79.42
71109;BME280;59614;51.012;-1.648;2023-05-14T08:05:17;101313.19;;;14.10;80.02
71109;BME280;59614;51.012;-1.648;2023-05-14T08:07:43;101309.47;;;14.19;77.34
71109;BME280;59614;51.012;-1.648;2023-05-14T08:10:08;101305.16;;;14.12;76.98
71109;BME280;59614;51.012;-1.648;2023-05-14T08:12:34;101314.00;;;14.14;76.70
71109;BME280;59614;51.012;-1.648;2023-05-14T08:14:59;101321.47;;;13.26;76.94
71109;BME280;59614;51.012;-1.648;2023-05-14T08:17:25;101323.44;;;13.08;77.28
71109;BME280;59614;51.012;-1.648;2023-05-14T08:19:51;101316.19;;;13.87;75.66
71109;BME280;59614;51.012;-1.648;2023-05-14T08:22:17;101314.59;;;13.77;74.91
71109;BME280;59614;51.012;-1.648;2023-05-14T08:24:42;101310.63;;;14.02;74.42
71109;BME280;59614;51.012;-1.648;2023-05-14T08:27:08;101312.50;;;14.49;74.96
71109;BME280;59614;51.012;-1.648;2023-05-14T08:29:34;101304.41;;;14.55;72.30
71109;BME280;59614;51.012;-1.648;2023-05-14T08:31:59;101289.38;;;15.00;74.87
71109;BME280;59614;51.012;-1.648;2023-05-14T08:34:25;101299.00;;;15.07;74.24
71109;BME280;59614;51.012;-1.648;2023-05-14T08:36:50;101294.28;;;15.20;72.46
71109;BME280;59614;51.012;-1.648;2023-05-14T08:39:15;101296.72;;;15.29;73.65
71109;BME280;59614;51.012;-1.648;2023-05-14T08:41:41;101292.81;;;15.05;72.30
71109;BME280;59614;51.012;-1.648;2023-05-14T08:44:30;101288.44;;;15.43;68.78
71109;BME280;59614;51.012;-1.648;2023-05-14T08:46:57;101280.53;;;15.78;67.90
71109;BME280;59614;51.012;-1.648;2023-05-14T08:49:41;101274.94;;;16.58;67.39
71109;BME280;59614;51.012;-1.648;2023-05-14T08:52:10;101273.66;;;17.04;67.78
71109;BME280;59614;51.012;-1.648;2023-05-14T08:54:37;101275.94;;;17.17;65.11
71109;BME280;59614;51.012;-1.648;2023-05-14T08:57:03;101256.75;;;17.62;64.76
71109;BME280;59614;51.012;-1.648;2023-05-14T08:59:29;101251.31;;;17.65;63.69
71109;BME280;59614;51.012;-1.648;2023-05-14T09:01:55;101251.38;;;18.17;63.81
71109;BME280;59614;51.012;-1.648;2023-05-14T09:04:23;101243.34;;;18.17;63.48
71109;BME280;59614;51.012;-1.648;2023-05-14T09:06:53;101243.28;;;18.44;62.73
71109;BME280;59614;51.012;-1.648;2023-05-14T09:09:18;101234.56;;;18.87;62.65
71109;BME280;59614;51.012;-1.648;2023-05-14T09:11:48;101240.66;;;19.16;62.51
71109;BME280;59614;51.012;-1.648;2023-05-14T09:14:14;101224.38;;;18.98;61.14
71109;BME280;59614;51.012;-1.648;2023-05-14T09:16:40;101219.66;;;19.05;59.45
71109;BME280;59614;51.012;-1.648;2023-05-14T09:19:07;101217.47;;;19.37;61.77
71109;BME280;59614;51.012;-1.648;2023-05-14T09:21:33;101223.59;;;19.18;60.11
71109;BME280;59614;51.012;-1.648;2023-05-14T09:23:59;101217.59;;;19.56;59.48
71109;BME280;59614;51.012;-1.648;2023-05-14T09:26:25;101220.06;;;19.83;58.24
71109;BME280;59614;51.012;-1.648;2023-05-14T09:28:54;101214.19;;;19.52;59.04
71109;BME280;59614;51.012;-1.648;2023-05-14T09:31:21;101214.97;;;19.76;56.71
71109;BME280;59614;51.012;-1.648;2023-05-14T09:33:50;101218.97;;;19.00;58.43
71109;BME280;59614;51.012;-1.648;2023-05-14T09:36:16;101227.94;;;18.98;57.80
71109;BME280;59614;51.012;-1.648;2023-05-14T09:38:42;101228.28;;;19.57;59.67
71109;BME280;59614;51.012;-1.648;2023-05-14T09:41:07;101223.88;;;19.77;58.05
71109;BME280;59614;51.012;-1.648;2023-05-14T09:43:33;101228.09;;;20.26;58.39
71109;BME280;59614;51.012;-1.648;2023-05-14T09:45:58;101223.28;;;20.72;57.19
71109;BME280;59614;51.012;-1.648;2023-05-14T09:48:24;101233.13;;;21.11;55.69
71109;BME280;59614;51.012;-1.648;2023-05-14T09:50:49;101228.75;;;21.28;53.21
71109;BME280;59614;51.012;-1.648;2023-05-14T09:53:16;101219.94;;;21.26;53.70
71109;BME280;59614;51.012;-1.648;2023-05-14T09:55:43;101223.25;;;21.12;55.38
71109;BME280;59614;51.012;-1.648;2023-05-14T09:58:09;101218.69;;;21.51;55.66
71109;BME280;59614;51.012;-1.648;2023-05-14T10:00:35;101225.00;;;21.32;55.15
71109;BME280;59614;51.012;-1.648;2023-05-14T10:03:04;101221.53;;;21.84;55.31
71109;BME280;59614;51.012;-1.648;2023-05-14T10:05:40;101230.19;;;21.54;53.09
71109;BME280;59614;51.012;-1.648;2023-05-14T10:08:28;101226.19;;;21.63;54.92
71109;BME280;59614;51.012;-1.648;2023-05-14T10:10:54;101224.47;;;22.15;54.80
71109;BME280;59614;51.012;-1.648;2023-05-14T10:13:29;101219.88;;;21.99;54.20
71109;BME280;59614;51.012;-1.648;2023-05-14T10:16:15;101216.38;;;22.50;54.35
71109;BME280;59614;51.012;-1.648;2023-05-14T10:18:46;101208.94;;;22.37;51.23
71109;BME280;59614;51.012;-1.648;2023-05-14T10:21:18;101199.69;;;22.26;51.97
71109;BME280;59614;51.012;-1.648;2023-05-14T10:23:45;101207.78;;;22.59;53.29
71109;BME280;59614;51.012;-1.648;2023-05-14T10:26:11;101207.41;;;22.99;52.09
71109;BME280;59614;51.012;-1.648;2023-05-14T10:28:37;101212.09;;;22.46;51.61
71109;BME280;59614;51.012;-1.648;2023-05-14T10:31:02;101204.34;;;22.89;52.50
71109;BME280;59614;51.012;-1.648;2023-05-14T10:33:28;101202.13;;;23.60;50.53
71109;BME280;59614;51.012;-1.648;2023-05-14T10:36:04;101201.81;;;23.97;52.39
71109;BME280;59614;51.012;-1.648;2023-05-14T10:38:34;101193.53;;;23.53;48.25
71109;BME280;59614;51.012;-1.648;2023-05-14T10:41:05;101198.63;;;23.11;50.19
71109;BME280;59614;51.012;-1.648;2023-05-14T10:43:35;101187.09;;;22.93;48.37
71109;BME280;59614;51.012;-1.648;2023-05-14T10:46:01;101192.53;;;22.92;50.22
71109;BME280;59614;51.012;-1.648;2023-05-14T10:48:27;101188.66;;;23.29;49.27
71109;BME280;59614;51.012;-1.648;2023-05-14T10:50:52;101191.06;;;23.50;51.69
71109;BME280;59614;51.012;-1.648;2023-05-14T10:53:19;101189.28;;;23.96;50.80
71109;BME280;59614;51.012;-1.648;2023-05-14T10:55:46;101185.72;;;23.95;48.91
71109;BME280;59614;51.012;-1.648;2023-05-14T10:58:12;101192.63;;;24.30;47.73
71109;BME280;59614;51.012;-1.648;2023-05-14T11:00:38;101180.28;;;23.81;47.55
71109;BME280;59614;51.012;-1.648;2023-05-14T11:03:06;101182.28;;;23.47;48.84
71109;BME280;59614;51.012;-1.648;2023-05-14T11:05:32;101181.53;;;23.75;49.07
71109;BME280;59614;51.012;-1.648;2023-05-14T11:08:03;101177.94;;;23.44;47.81
71109;BME280;59614;51.012;-1.648;2023-05-14T11:10:31;101177.94;;;24.05;48.68
71109;BME280;59614;51.012;-1.648;2023-05-14T11:12:56;101170.50;;;23.64;47.93
71109;BME280;59614;51.012;-1.648;2023-05-14T11:15:23;101178.31;;;24.13;50.40
71109;BME280;59614;51.012;-1.648;2023-05-14T11:17:51;101173.72;;;24.59;48.68
71109;BME280;59614;51.012;-1.648;2023-05-14T11:20:18;101173.13;;;24.82;48.44
71109;BME280;59614;51.012;-1.648;2023-05-14T11:22:45;101166.19;;;24.64;47.65
71109;BME280;59614;51.012;-1.648;2023-05-14T11:25:12;101162.94;;;25.42;48.60
71109;BME280;59614;51.012;-1.648;2023-05-14T11:27:39;101156.19;;;25.88;47.48
71109;BME280;59614;51.012;-1.648;2023-05-14T11:30:18;101166.38;;;26.36;46.54
71109;BME280;59614;51.012;-1.648;2023-05-14T11:32:44;101163.16;;;26.18;46.43
71109;BME280;59614;51.012;-1.648;2023-05-14T11:35:11;101165.31;;;26.39;46.89
71109;BME280;59614;51.012;-1.648;2023-05-14T11:37:36;101165.75;;;26.46;48.38
71109;BME280;59614;51.012;-1.648;2023-05-14T11:40:05;101163.81;;;26.22;48.07
71109;BME280;59614;51.012;-1.648;2023-05-14T11:42:32;101155.38;;;27.14;48.03
71109;BME280;59614;51.012;-1.648;2023-05-14T11:44:57;101151.34;;;26.95;44.86
71109;BME280;59614;51.012;-1.648;2023-05-14T11:47:23;101160.59;;;24.81;47.78
71109;BME280;59614;51.012;-1.648;2023-05-14T11:49:48;101159.63;;;24.82;50.41
71109;BME280;59614;51.012;-1.648;2023-05-14T11:52:15;101162.69;;;25.86;50.11
71109;BME280;59614;51.012;-1.648;2023-05-14T11:54:43;101158.56;;;25.80;48.12
71109;BME280;59614;51.012;-1.648;2023-05-14T11:57:14;101154.47;;;25.87;49.04
71109;BME280;59614;51.012;-1.648;2023-05-14T11:59:40;101154.25;;;26.03;49.50
71109;BME280;59614;51.012;-1.648;2023-05-14T12:02:10;101154.41;;;26.28;49.75
71109;BME280;59614;51.012;-1.648;2023-05-14T12:04:36;101139.13;;;26.14;50.76
71109;BME280;59614;51.012;-1.648;2023-05-14T12:07:11;101138.13;;;26.02;47.08
71109;BME280;59614;51.012;-1.648;2023-05-14T12:09:59;101134.34;;;24.98;48.46
71109;BME280;59614;51.012;-1.648;2023-05-14T12:12:25;101124.81;;;25.60;49.23
71109;BME280;59614;51.012;-1.648;2023-05-14T12:14:50;101123.88;;;26.63;48.28
71109;BME280;59614;51.012;-1.648;2023-05-14T12:17:19;101114.50;;;27.41;45.95
71109;BME280;59614;51.012;-1.648;2023-05-14T12:19:47;101115.53;;;27.27;47.20
71109;BME280;59614;51.012;-1.648;2023-05-14T12:22:14;101120.25;;;27.61;47.91
71109;BME280;59614;51.012;-1.648;2023-05-14T12:24:42;101095.53;;;27.53;46.09
71109;BME280;59614;51.012;-1.648;2023-05-14T12:27:09;101106.94;;;27.34;46.34
71109;BME280;59614;51.012;-1.648;2023-05-14T12:29:36;101097.16;;;26.95;44.91
71109;BME280;59614;51.012;-1.648;2023-05-14T12:32:06;101095.84;;;27.01;47.88
71109;BME280;59614;51.012;-1.648;2023-05-14T12:34:34;101107.28;;;27.29;46.30
71109;BME280;59614;51.012;-1.648;2023-05-14T12:36:59;101105.22;;;26.84;47.56
71109;BME280;59614;51.012;-1.648;2023-05-14T12:39:25;101101.97;;;27.52;48.06